createdAt,value
2019-05-21T00:00:39.910Z,16.19
2019-05-21T00:03:10.717Z,16.19
2019-05-21T00:05:41.551Z,16.14
2019-05-21T00:08:12.300Z,16.16
2019-05-21T00:10:42.880Z,16.20
2019-05-21T00:13:13.651Z,16.10
2019-05-21T00:15:44.516Z,16.08
2019-05-21T00:18:16.575Z,16.06
2019-05-21T00:20:47.585Z,16.12
2019-05-21T00:23:18.375Z,15.99
2019-05-21T00:25:49.167Z,15.94
2019-05-21T00:28:40.795Z,16.02
2019-05-21T00:31:50.496Z,16.04
2019-05-21T00:34:56.911Z,16.08
2019-05-21T00:38:04.175Z,16.06
2019-05-21T00:41:11.363Z,16.01
2019-05-21T00:43:53.900Z,16.04
2019-05-21T00:46:24.649Z,15.97
2019-05-21T00:48:55.509Z,16.02
2019-05-21T00:51:26.585Z,16.02
2019-05-21T00:53:57.711Z,15.96
2019-05-21T00:56:28.654Z,16.01
2019-05-21T00:58:59.540Z,15.94
2019-05-21T01:01:30.314Z,15.99
2019-05-21T01:04:01.377Z,15.96
2019-05-21T01:06:32.270Z,15.80
2019-05-21T01:09:03.136Z,15.82
2019-05-21T01:11:34.036Z,15.84
2019-05-21T01:14:05.183Z,15.84
2019-05-21T01:16:36.143Z,15.84
2019-05-21T01:19:06.957Z,15.84
2019-05-21T01:21:37.726Z,15.88
2019-05-21T01:24:08.514Z,15.82
2019-05-21T01:26:39.367Z,15.80
2019-05-21T01:29:10.042Z,15.76
2019-05-21T01:31:42.193Z,15.71
2019-05-21T01:34:12.689Z,15.68
2019-05-21T01:36:43.224Z,15.68
2019-05-21T01:39:14.070Z,15.68
2019-05-21T01:41:44.826Z,15.67
2019-05-21T01:44:15.643Z,15.67
2019-05-21T01:46:46.478Z,15.71
2019-05-21T01:49:17.210Z,15.72
2019-05-21T01:51:48.062Z,15.72
2019-05-21T01:54:18.562Z,15.72
2019-05-21T01:56:49.414Z,15.64
2019-05-21T01:59:20.234Z,15.60
2019-05-21T02:01:51.082Z,15.52
2019-05-21T02:04:21.921Z,15.49
2019-05-21T02:06:53.184Z,15.52
2019-05-21T02:09:23.899Z,15.46
2019-05-21T02:11:54.667Z,15.49
2019-05-21T02:14:25.567Z,15.40
2019-05-21T02:16:56.430Z,15.37
2019-05-21T02:19:27.142Z,15.38
2019-05-21T02:21:58.088Z,15.32
2019-05-21T02:24:28.813Z,15.34
2019-05-21T02:26:59.545Z,15.29
2019-05-21T02:29:30.281Z,15.25
2019-05-21T02:32:00.851Z,15.25
2019-05-21T02:34:31.641Z,15.21
2019-05-21T02:37:05.850Z,15.20
2019-05-21T02:39:34.956Z,15.17
2019-05-21T02:42:05.685Z,15.17
2019-05-21T02:44:36.431Z,15.16
2019-05-21T02:47:06.951Z,15.22
2019-05-21T02:49:38.856Z,15.13
2019-05-21T02:52:15.483Z,15.04
2019-05-21T02:54:46.600Z,15.15
2019-05-21T02:57:17.786Z,15.05
2019-05-21T02:59:50.359Z,15.05
2019-05-21T03:02:33.480Z,15.02
2019-05-21T03:05:06.675Z,15.04
2019-05-21T03:07:37.416Z,15.00
2019-05-21T03:10:08.354Z,15.06
2019-05-21T03:12:39.184Z,14.95
2019-05-21T03:15:11.862Z,14.93
2019-05-21T03:17:43.402Z,14.90
2019-05-21T03:20:14.257Z,14.89
2019-05-21T03:22:45.149Z,14.91
2019-05-21T03:25:15.913Z,14.88
2019-05-21T03:27:46.762Z,14.89
2019-05-21T03:30:19.254Z,14.80
2019-05-21T03:32:49.758Z,14.78
2019-05-21T03:35:20.569Z,14.79
2019-05-21T03:37:51.543Z,14.82
2019-05-21T03:40:22.476Z,14.78
2019-05-21T03:42:54.857Z,14.75
2019-05-21T03:45:25.733Z,14.76
2019-05-21T03:47:56.684Z,14.80
2019-05-21T03:50:27.464Z,14.83
2019-05-21T03:52:58.221Z,14.83
2019-05-21T03:55:29.971Z,14.92
2019-05-21T03:58:00.914Z,14.84
2019-05-21T04:00:31.730Z,14.87
2019-05-21T04:03:02.273Z,14.95
2019-05-21T04:05:32.685Z,14.87
2019-05-21T04:08:03.547Z,14.84
2019-05-21T04:10:34.355Z,14.83
2019-05-21T04:13:08.646Z,14.86
2019-05-21T04:16:01.044Z,14.89
2019-05-21T04:18:33.550Z,14.88
2019-05-21T04:21:04.410Z,14.74
2019-05-21T04:23:35.290Z,14.68
2019-05-21T04:26:07.232Z,14.69
2019-05-21T04:28:38.085Z,14.76
2019-05-21T04:31:08.912Z,14.77
2019-05-21T04:33:39.508Z,14.72
2019-05-21T04:36:10.284Z,14.76
2019-05-21T04:38:40.753Z,14.82
2019-05-21T04:41:11.570Z,14.82
2019-05-21T04:43:42.164Z,14.88
2019-05-21T04:46:12.897Z,14.86
2019-05-21T04:48:46.611Z,14.95
2019-05-21T04:51:17.368Z,15.24
2019-05-21T04:53:48.410Z,15.30
2019-05-21T04:56:19.343Z,15.59
2019-05-21T04:58:49.831Z,15.68
2019-05-21T05:01:20.724Z,15.81
2019-05-21T05:03:51.600Z,15.98
2019-05-21T05:06:22.471Z,16.12
2019-05-21T05:08:53.217Z,16.30
2019-05-21T05:11:23.953Z,16.38
2019-05-21T05:13:54.478Z,16.34
2019-05-21T05:16:25.465Z,16.61
2019-05-21T05:18:55.938Z,16.84
2019-05-21T05:21:26.913Z,16.88
2019-05-21T05:23:57.795Z,17.04
2019-05-21T05:26:28.563Z,17.21
2019-05-21T05:28:59.499Z,17.24
2019-05-21T05:31:32.129Z,17.12
2019-05-21T05:34:03.114Z,17.31
2019-05-21T05:36:34.064Z,17.43
2019-05-21T05:39:07.553Z,17.42
2019-05-21T05:41:38.457Z,17.39
2019-05-21T05:44:10.862Z,17.58
2019-05-21T05:46:41.688Z,17.38
2019-05-21T05:49:14.085Z,17.51
2019-05-21T05:51:44.858Z,17.46
2019-05-21T05:54:15.660Z,17.33
2019-05-21T05:56:46.121Z,17.48
2019-05-21T05:59:16.904Z,17.59
2019-05-21T06:01:47.917Z,17.74
2019-05-21T06:04:18.818Z,17.58
2019-05-21T06:06:49.624Z,17.60
2019-05-21T06:09:20.533Z,17.78
2019-05-21T06:11:51.289Z,17.85
2019-05-21T06:14:22.147Z,17.87
2019-05-21T06:16:52.965Z,17.96
2019-05-21T06:19:23.801Z,18.04
2019-05-21T06:21:54.740Z,17.83
2019-05-21T06:24:25.331Z,17.90
2019-05-21T06:26:56.116Z,17.82
2019-05-21T06:29:27.049Z,17.91
2019-05-21T06:31:57.919Z,17.98
2019-05-21T06:34:28.769Z,18.05
2019-05-21T06:36:59.626Z,18.22
2019-05-21T06:39:30.694Z,18.20
2019-05-21T06:42:01.535Z,18.04
2019-05-21T06:44:32.415Z,18.14
2019-05-21T06:47:03.217Z,18.09
2019-05-21T06:49:34.052Z,18.06
2019-05-21T06:52:05.453Z,18.16
2019-05-21T06:54:36.356Z,18.14
2019-05-21T06:57:07.230Z,18.02
2019-05-21T06:59:38.030Z,18.02
2019-05-21T07:02:08.868Z,18.00
2019-05-21T07:04:39.828Z,18.04
2019-05-21T07:07:10.302Z,18.06
2019-05-21T07:09:41.084Z,18.06
2019-05-21T07:12:11.800Z,17.99
2019-05-21T07:14:42.701Z,18.11
2019-05-21T07:17:13.452Z,18.15
2019-05-21T07:19:44.391Z,18.24
2019-05-21T07:22:14.859Z,18.25
2019-05-21T07:24:45.653Z,18.36
2019-05-21T07:27:16.407Z,18.43
2019-05-21T07:29:47.421Z,18.52
2019-05-21T07:32:18.368Z,18.48
2019-05-21T07:34:49.225Z,18.50
2019-05-21T07:37:20.110Z,18.52
2019-05-21T07:39:50.931Z,18.50
2019-05-21T07:42:21.732Z,18.48
2019-05-21T07:44:52.562Z,18.53
2019-05-21T07:47:23.536Z,18.62
2019-05-21T07:49:54.350Z,18.65
2019-05-21T07:52:25.167Z,18.60
2019-05-21T07:54:55.917Z,18.64
2019-05-21T07:57:26.798Z,18.74
2019-05-21T07:59:57.721Z,18.72
2019-05-21T08:02:28.531Z,18.67
2019-05-21T08:04:59.825Z,18.83
2019-05-21T08:07:30.291Z,18.87
2019-05-21T08:10:01.137Z,18.90
2019-05-21T08:12:38.947Z,19.06
2019-05-21T08:15:07.538Z,19.06
2019-05-21T08:17:37.910Z,19.00
2019-05-21T08:20:11.131Z,19.02
2019-05-21T08:22:42.243Z,19.04
2019-05-21T08:25:16.030Z,19.12
2019-05-21T08:27:46.602Z,19.15
2019-05-21T08:30:17.691Z,19.22
2019-05-21T08:32:48.710Z,19.30
2019-05-21T08:35:19.901Z,19.28
2019-05-21T08:37:50.569Z,19.18
2019-05-21T08:40:21.873Z,19.32
2019-05-21T08:42:54.307Z,19.24
2019-05-21T08:45:25.592Z,19.18
2019-05-21T08:47:57.002Z,19.40
2019-05-21T08:50:27.959Z,19.34
2019-05-21T08:52:58.972Z,19.39
2019-05-21T08:55:29.863Z,19.50
2019-05-21T08:58:06.952Z,19.38
2019-05-21T09:00:33.144Z,19.51
2019-05-21T09:03:04.076Z,19.50
2019-05-21T09:05:35.095Z,19.47
2019-05-21T09:08:06.015Z,19.55
2019-05-21T09:10:39.994Z,19.58
2019-05-21T09:13:10.929Z,19.68
2019-05-21T09:15:41.532Z,19.84
2019-05-21T09:18:12.450Z,20.07
2019-05-21T09:20:43.398Z,20.19
2019-05-21T09:23:14.274Z,20.46
2019-05-21T09:25:45.250Z,20.55
2019-05-21T09:28:16.267Z,20.48
2019-05-21T09:30:47.139Z,20.60
2019-05-21T09:33:18.042Z,20.65
2019-05-21T09:35:48.941Z,20.69
2019-05-21T09:38:19.750Z,20.72
2019-05-21T09:40:50.661Z,20.84
2019-05-21T09:43:21.446Z,20.94
2019-05-21T09:45:52.052Z,20.82
2019-05-21T09:48:22.988Z,21.04
2019-05-21T09:50:53.923Z,21.14
2019-05-21T09:53:24.444Z,21.06
2019-05-21T09:55:55.435Z,21.20
2019-05-21T09:58:27.938Z,21.32
2019-05-21T10:01:18.194Z,21.35
2019-05-21T10:03:50.766Z,21.30
2019-05-21T10:06:21.952Z,21.23
2019-05-21T10:08:54.392Z,21.17
2019-05-21T10:11:25.329Z,20.98
2019-05-21T10:13:56.198Z,20.99
2019-05-21T10:16:27.011Z,21.18
2019-05-21T10:18:57.892Z,21.06
2019-05-21T10:21:28.784Z,21.31
2019-05-21T10:23:59.556Z,21.41
2019-05-21T10:26:30.073Z,21.59
2019-05-21T10:29:00.951Z,21.62
2019-05-21T10:31:32.234Z,21.65
2019-05-21T10:34:03.045Z,21.69
2019-05-21T10:36:35.288Z,21.81
2019-05-21T10:39:07.960Z,21.82
2019-05-21T10:41:40.688Z,21.77
2019-05-21T10:44:11.768Z,21.71
2019-05-21T10:46:42.855Z,21.79
2019-05-21T10:49:13.968Z,21.72
2019-05-21T10:51:44.960Z,21.85
2019-05-21T10:54:16.398Z,21.96
2019-05-21T10:56:48.631Z,22.16
2019-05-21T10:59:19.644Z,22.42
2019-05-21T11:01:58.198Z,22.55
2019-05-21T11:04:33.375Z,22.78
2019-05-21T11:07:04.409Z,22.80
2019-05-21T11:09:35.163Z,23.00
2019-05-21T11:12:07.733Z,22.98
2019-05-21T11:14:38.693Z,23.30
2019-05-21T11:17:11.200Z,23.28
2019-05-21T11:19:42.149Z,23.17
2019-05-21T11:22:12.766Z,23.21
2019-05-21T11:24:43.787Z,22.74
2019-05-21T11:27:15.740Z,22.98
2019-05-21T11:29:46.353Z,22.80
2019-05-21T11:32:17.336Z,23.21
2019-05-21T11:34:50.263Z,23.34
2019-05-21T11:37:20.930Z,23.15
2019-05-21T11:39:51.846Z,23.04
2019-05-21T11:42:22.743Z,22.81
2019-05-21T11:44:53.622Z,22.94
2019-05-21T11:47:25.935Z,22.64
2019-05-21T11:49:56.913Z,22.62
2019-05-21T11:52:27.977Z,22.64
2019-05-21T11:54:58.958Z,22.48
2019-05-21T11:57:32.236Z,22.77
2019-05-21T12:00:03.557Z,22.94
2019-05-21T12:02:34.691Z,23.06
2019-05-21T12:05:07.447Z,22.94
2019-05-21T12:07:38.395Z,23.14
2019-05-21T12:10:17.119Z,23.29
2019-05-21T12:12:47.959Z,23.26
2019-05-21T12:15:19.111Z,23.07
2019-05-21T12:17:50.154Z,22.98
2019-05-21T12:20:35.265Z,23.00
2019-05-21T12:22:53.618Z,23.22
2019-05-21T12:25:24.665Z,22.69
2019-05-21T12:27:55.652Z,22.52
2019-05-21T12:30:26.639Z,22.57
2019-05-21T12:32:57.788Z,22.64
2019-05-21T12:35:28.322Z,22.76
2019-05-21T12:38:00.531Z,22.73
2019-05-21T12:40:31.541Z,22.74
2019-05-21T12:43:02.307Z,22.81
2019-05-21T12:45:33.413Z,22.74
2019-05-21T12:48:04.378Z,22.88
2019-05-21T12:50:35.243Z,23.10
2019-05-21T12:53:05.989Z,23.20
2019-05-21T12:55:36.852Z,23.44
2019-05-21T12:58:07.355Z,23.55
2019-05-21T13:00:38.717Z,23.67
2019-05-21T13:03:09.663Z,24.08
2019-05-21T13:05:40.693Z,23.89
2019-05-21T13:08:11.519Z,23.91
2019-05-21T13:10:42.384Z,23.82
2019-05-21T13:13:13.412Z,23.71
2019-05-21T13:15:44.263Z,24.03
2019-05-21T13:18:15.297Z,24.10
2019-05-21T13:20:47.770Z,24.11
2019-05-21T13:23:18.897Z,24.10
2019-05-21T13:25:50.441Z,24.01
2019-05-21T13:28:21.792Z,23.93
2019-05-21T13:30:52.642Z,23.90
2019-05-21T13:33:23.715Z,23.68
2019-05-21T13:35:54.219Z,23.93
2019-05-21T13:38:26.377Z,23.83
2019-05-21T13:40:58.061Z,23.73
2019-05-21T13:43:28.957Z,24.00
2019-05-21T13:45:59.829Z,23.96
2019-05-21T13:48:30.365Z,24.11
2019-05-21T13:51:01.562Z,23.97
2019-05-21T13:53:32.683Z,24.03
2019-05-21T13:56:03.584Z,23.83
2019-05-21T13:58:34.789Z,23.92
2019-05-21T14:01:06.679Z,23.77
2019-05-21T14:03:37.831Z,23.97
2019-05-21T14:06:08.404Z,23.56
2019-05-21T14:08:39.055Z,23.41
2019-05-21T14:11:13.071Z,23.76
2019-05-21T14:13:45.402Z,23.56
2019-05-21T14:16:16.360Z,23.59
2019-05-21T14:18:47.417Z,23.48
2019-05-21T14:21:18.240Z,23.41
2019-05-21T14:23:48.939Z,23.43
2019-05-21T14:26:19.789Z,23.30
2019-05-21T14:28:50.724Z,23.29
2019-05-21T14:31:21.567Z,23.10
2019-05-21T14:33:52.697Z,22.93
2019-05-21T14:36:23.783Z,22.82
2019-05-21T14:38:56.319Z,22.77
2019-05-21T14:41:27.319Z,22.63
2019-05-21T14:43:58.405Z,22.64
2019-05-21T14:46:28.820Z,22.62
2019-05-21T14:48:59.739Z,22.53
2019-05-21T14:51:30.574Z,22.46
2019-05-21T14:54:05.081Z,22.46
2019-05-21T14:56:35.936Z,22.48
2019-05-21T14:59:07.063Z,22.58
2019-05-21T15:01:40.824Z,22.61
2019-05-21T15:04:12.065Z,22.80
2019-05-21T15:06:42.920Z,22.94
2019-05-21T15:09:13.969Z,22.94
2019-05-21T15:11:44.701Z,23.11
2019-05-21T15:14:15.684Z,23.19
2019-05-21T15:16:46.236Z,23.24
2019-05-21T15:19:17.158Z,23.38
2019-05-21T15:21:49.454Z,23.40
2019-05-21T15:24:20.378Z,23.48
2019-05-21T15:26:51.204Z,23.77
2019-05-21T15:29:22.050Z,23.30
2019-05-21T15:31:52.787Z,23.34
2019-05-21T15:34:23.608Z,23.44
2019-05-21T15:36:54.441Z,23.38
2019-05-21T15:39:25.304Z,23.25
2019-05-21T15:41:56.300Z,23.18
2019-05-21T15:44:27.150Z,23.02
2019-05-21T15:46:58.054Z,22.88
2019-05-21T15:49:36.551Z,22.76
2019-05-21T15:52:01.846Z,22.66
2019-05-21T15:54:32.865Z,22.49
2019-05-21T15:57:03.804Z,22.52
2019-05-21T15:59:34.646Z,22.20
2019-05-21T16:02:05.564Z,22.11
2019-05-21T16:04:36.517Z,22.05
2019-05-21T16:07:07.370Z,21.90
2019-05-21T16:09:38.803Z,21.76
2019-05-21T16:12:09.750Z,21.90
2019-05-21T16:14:40.700Z,21.79
2019-05-21T16:17:11.625Z,21.86
2019-05-21T16:19:42.744Z,21.82
2019-05-21T16:22:13.238Z,21.81
2019-05-21T16:24:44.144Z,21.93
2019-05-21T16:27:15.082Z,22.00
2019-05-21T16:29:46.580Z,21.82
2019-05-21T16:32:17.612Z,21.83
2019-05-21T16:34:48.643Z,21.82
2019-05-21T16:37:19.654Z,21.72
2019-05-21T16:39:50.984Z,21.80
2019-05-21T16:42:21.939Z,21.93
2019-05-21T16:44:52.960Z,21.94
2019-05-21T16:47:24.423Z,22.61
2019-05-21T16:49:55.151Z,22.92
2019-05-21T16:52:26.104Z,23.62
2019-05-21T16:54:57.127Z,24.72
2019-05-21T16:57:28.069Z,24.93
2019-05-21T16:59:59.062Z,24.63
2019-05-21T17:02:29.785Z,24.04
2019-05-21T17:05:01.020Z,23.94
2019-05-21T17:07:32.115Z,24.42
2019-05-21T17:10:08.069Z,24.75
2019-05-21T17:12:39.072Z,25.02
2019-05-21T17:15:10.613Z,24.39
2019-05-21T17:17:41.722Z,24.06
2019-05-21T17:20:13.212Z,23.86
2019-05-21T17:22:43.730Z,23.30
2019-05-21T17:25:16.965Z,23.37
2019-05-21T17:27:47.963Z,22.98
2019-05-21T17:30:19.432Z,22.85
2019-05-21T17:32:50.124Z,22.73
2019-05-21T17:35:21.034Z,22.51
2019-05-21T17:37:51.861Z,22.43
2019-05-21T17:40:22.863Z,22.15
2019-05-21T17:42:56.790Z,21.96
2019-05-21T17:45:27.608Z,21.82
2019-05-21T17:47:58.525Z,21.72
2019-05-21T17:50:29.414Z,21.62
2019-05-21T17:52:59.817Z,21.73
2019-05-21T17:55:32.191Z,21.63
2019-05-21T17:58:03.356Z,21.59
2019-05-21T18:00:46.293Z,21.44
2019-05-21T18:03:17.607Z,21.38
2019-05-21T18:05:50.075Z,21.26
2019-05-21T18:08:21.128Z,21.23
2019-05-21T18:10:52.764Z,21.21
2019-05-21T18:13:24.646Z,21.20
2019-05-21T18:15:57.699Z,21.12
2019-05-21T18:18:30.562Z,20.99
2019-05-21T18:21:02.668Z,20.87
2019-05-21T18:23:34.033Z,20.76
2019-05-21T18:26:05.695Z,20.84
2019-05-21T18:28:36.639Z,20.82
2019-05-21T18:31:08.177Z,20.72
2019-05-21T18:33:39.414Z,20.86
2019-05-21T18:36:10.409Z,20.76
2019-05-21T18:38:44.396Z,20.77
2019-05-21T18:41:15.432Z,20.60
2019-05-21T18:43:49.858Z,20.56
2019-05-21T18:46:18.611Z,20.41
2019-05-21T18:48:50.881Z,20.35
2019-05-21T18:51:21.602Z,20.38
2019-05-21T18:53:52.468Z,20.27
2019-05-21T18:56:23.293Z,20.24
2019-05-21T18:58:54.035Z,20.20
2019-05-21T19:01:25.089Z,20.28
2019-05-21T19:03:55.721Z,20.27
2019-05-21T19:06:26.631Z,20.00
2019-05-21T19:08:57.087Z,20.10
2019-05-21T19:11:28.327Z,19.91
2019-05-21T19:13:59.239Z,19.95
2019-05-21T19:16:30.168Z,19.90
2019-05-21T19:19:01.225Z,19.90
2019-05-21T19:21:32.199Z,20.01
2019-05-21T19:24:03.141Z,19.73
2019-05-21T19:26:34.179Z,19.76
2019-05-21T19:29:07.760Z,19.79
2019-05-21T19:31:37.455Z,19.85
2019-05-21T19:34:08.349Z,19.88
2019-05-21T19:36:39.072Z,19.74
2019-05-21T19:39:09.685Z,19.64
2019-05-21T19:41:40.687Z,19.59
2019-05-21T19:44:11.535Z,19.63
2019-05-21T19:46:42.385Z,19.56
2019-05-21T19:49:14.270Z,19.66
2019-05-21T19:51:45.234Z,19.57
2019-05-21T19:54:16.140Z,19.54
2019-05-21T19:56:47.005Z,19.26
2019-05-21T19:59:17.793Z,19.20
2019-05-21T20:01:49.356Z,19.12
2019-05-21T20:04:20.578Z,19.02
2019-05-21T20:06:51.318Z,19.06
2019-05-21T20:09:26.810Z,19.31
2019-05-21T20:11:56.889Z,19.14
2019-05-21T20:14:28.784Z,19.12
2019-05-21T20:17:00.232Z,19.18
2019-05-21T20:19:31.728Z,19.18
2019-05-21T20:22:02.595Z,19.06
2019-05-21T20:24:33.343Z,19.01
2019-05-21T20:27:04.359Z,18.94
2019-05-21T20:29:35.615Z,18.88
2019-05-21T20:32:07.411Z,18.88
2019-05-21T20:34:40.749Z,18.81
2019-05-21T20:37:13.491Z,18.88
2019-05-21T20:39:45.405Z,18.80
2019-05-21T20:42:19.000Z,18.79
2019-05-21T20:44:50.273Z,18.74
2019-05-21T20:47:21.376Z,18.58
2019-05-21T20:49:55.289Z,18.41
2019-05-21T20:52:26.369Z,18.24
2019-05-21T20:54:58.594Z,17.60
2019-05-21T20:57:29.427Z,17.34
2019-05-21T21:00:00.363Z,17.00
2019-05-21T21:02:32.945Z,16.80
2019-05-21T21:05:06.125Z,16.59
2019-05-21T21:07:38.889Z,16.57
2019-05-21T21:10:12.634Z,16.56
2019-05-21T21:12:44.215Z,16.39
2019-05-21T21:15:16.328Z,16.43
2019-05-21T21:17:47.199Z,16.28
2019-05-21T21:20:18.550Z,16.38
2019-05-21T21:22:57.494Z,16.31
2019-05-21T21:25:28.999Z,16.32
2019-05-21T21:28:00.701Z,16.41
2019-05-21T21:30:32.027Z,16.36
2019-05-21T21:33:03.441Z,16.41
2019-05-21T21:35:34.945Z,16.18
2019-05-21T21:38:07.527Z,16.08
2019-05-21T21:40:38.804Z,15.97
2019-05-21T21:43:10.014Z,16.00
2019-05-21T21:45:41.290Z,15.97
2019-05-21T21:48:12.758Z,15.92
2019-05-21T21:50:43.932Z,16.01
2019-05-21T21:53:15.194Z,16.02
2019-05-21T21:55:46.243Z,16.02
2019-05-21T21:58:18.320Z,16.07
2019-05-21T22:01:10.235Z,16.14
2019-05-21T22:03:43.255Z,16.17
2019-05-21T22:06:17.449Z,16.18
2019-05-21T22:08:51.254Z,16.28
2019-05-21T22:11:22.033Z,16.35
2019-05-21T22:13:52.611Z,16.42
2019-05-21T22:16:26.660Z,16.36
2019-05-21T22:18:57.820Z,16.37
2019-05-21T22:21:29.288Z,16.37
2019-05-21T22:24:00.292Z,16.48
2019-05-21T22:26:32.020Z,16.46
2019-05-21T22:29:05.265Z,16.40
2019-05-21T22:31:39.011Z,16.49
2019-05-21T22:34:10.821Z,16.48
2019-05-21T22:36:41.619Z,16.46
2019-05-21T22:39:20.522Z,16.44
2019-05-21T22:42:01.495Z,16.43
2019-05-21T22:44:33.053Z,16.46
2019-05-21T22:47:05.607Z,16.48
2019-05-21T22:49:37.405Z,16.60
2019-05-21T22:52:08.693Z,16.47
2019-05-21T22:54:39.505Z,16.52
2019-05-21T22:57:10.559Z,16.50
2019-05-21T22:59:41.448Z,16.66
2019-05-21T23:02:14.207Z,16.54
2019-05-21T23:04:45.432Z,16.46
2019-05-21T23:07:16.552Z,16.54
2019-05-21T23:09:47.490Z,16.48
2019-05-21T23:12:19.021Z,16.44
2019-05-21T23:14:50.189Z,16.52
2019-05-21T23:17:20.932Z,16.30
2019-05-21T23:19:56.151Z,16.36
2019-05-21T23:22:28.010Z,16.37
2019-05-21T23:24:59.338Z,16.34
2019-05-21T23:27:30.596Z,16.30
2019-05-21T23:30:02.464Z,16.32
2019-05-21T23:32:33.882Z,16.32
2019-05-21T23:35:08.152Z,16.25
2019-05-21T23:37:41.666Z,16.22
2019-05-21T23:40:13.830Z,16.14
2019-05-21T23:42:44.300Z,16.10
2019-05-21T23:45:15.854Z,16.01
2019-05-21T23:47:46.850Z,15.99
2019-05-21T23:50:18.734Z,16.00
2019-05-21T23:52:49.772Z,15.96
2019-05-21T23:55:20.820Z,15.84
2019-05-21T23:57:52.394Z,15.86
